Time;durP1;ratioP1;P1;durP2;ratioP2;P2;SDS_P1;SDS_P2;PMS_P1;PMS_P2;Temp;Humidity;BMP_temperature;BMP_pressure;BME280_temperature;BME280_humidity;BME280_pressure;Samples;Min_cycle;Max_cycle;Signal;HPM_P1;HPM_P2
2022/07/23 00:02:09;;;;;;;;;;;27.40;95.30;;;;;;5094868;28;19904;-71
2022/07/23 00:04:35;;;;;;;;;;;27.30;95.40;;;;;;5094666;28;20271;-71
2022/07/23 00:07:01;;;;;;;;;;;27.30;95.30;;;;;;5093181;28;20031;-71
2022/07/23 00:09:28;;;;;;;;;;;27.20;95.40;;;;;;5094684;28;19904;-71
2022/07/23 00:11:54;;;;;;;;;;;27.20;95.50;;;;;;5095389;28;19951;-72
2022/07/23 00:14:20;;;;;;;;;;;27.20;95.50;;;;;;5094789;28;19961;-72
2022/07/23 00:16:45;;;;;;;;;;;27.10;95.70;;;;;;5094335;28;19912;-72
2022/07/23 00:19:11;;;;;;;;;;;27.00;95.60;;;;;;5094363;28;20378;-72
2022/07/23 00:21:37;;;;;;;;;;;27.00;95.60;;;;;;5094435;28;19904;-72
2022/07/23 00:24:03;;;;;;;;;;;26.90;96.00;;;;;;5094812;28;20241;-71
2022/07/23 00:26:29;;;;;;;;;;;26.90;95.90;;;;;;5094468;28;19915;-72
2022/07/23 00:28:54;;;;;;;;;;;26.80;96.40;;;;;;5094503;28;20356;-72
2022/07/23 00:31:20;;;;;;;;;;;26.90;96.10;;;;;;5094328;28;19947;-72
2022/07/23 00:33:46;;;;;;;;;;;26.90;96.40;;;;;;5094682;28;20383;-72
2022/07/23 00:36:12;;;;;;;;;;;26.80;96.30;;;;;;5094162;28;19912;-72
2022/07/23 00:38:38;;;;;;;;;;;26.90;98.60;;;;;;5092708;28;19914;-72
2022/07/23 00:41:03;;;;;;;;;;;26.90;99.80;;;;;;5094540;28;19908;-71
2022/07/23 00:43:29;;;;;;;;;;;26.80;99.90;;;;;;5093848;28;19908;-70
2022/07/23 00:45:55;;;;;;;;;;;26.60;99.90;;;;;;5093960;28;19904;-71
2022/07/23 00:48:21;;;;;;;;;;;26.60;99.90;;;;;;5093414;28;19904;-71
2022/07/23 00:50:47;;;;;;;;;;;26.60;99.90;;;;;;5094026;28;19911;-71
2022/07/23 00:53:13;;;;;;;;;;;26.50;99.90;;;;;;5094318;28;20247;-71
2022/07/23 00:55:39;;;;;;;;;;;26.50;99.90;;;;;;5093622;28;19915;-71
2022/07/23 00:58:06;;;;;;;;;;;26.50;99.90;;;;;;5092133;28;19919;-71
2022/07/23 01:00:31;;;;;;;;;;;26.50;99.90;;;;;;5093615;28;19961;-71
2022/07/23 01:02:57;;;;;;;;;;;26.50;99.90;;;;;;5093936;28;20340;-70
2022/07/23 01:05:23;;;;;;;;;;;26.50;99.90;;;;;;5093760;28;19911;-72
2022/07/23 01:07:49;;;;;;;;;;;26.50;99.90;;;;;;5092030;28;19915;-70
2022/07/23 01:10:31;;;;;;;;;;;26.50;99.90;;;;;;5093479;28;19955;-71
2022/07/23 01:12:57;;;;;;;;;;;26.40;99.90;;;;;;5093754;28;19958;-71
2022/07/23 01:15:23;;;;;;;;;;;26.40;99.90;;;;;;5093401;28;19939;-72
2022/07/23 01:17:49;;;;;;;;;;;26.40;99.90;;;;;;5093313;28;19965;-71
2022/07/23 01:20:15;;;;;;;;;;;26.20;99.90;;;;;;5093580;28;19907;-71
2022/07/23 01:22:41;;;;;;;;;;;26.20;99.90;;;;;;5093302;28;19904;-71
2022/07/23 01:25:07;;;;;;;;;;;26.20;99.90;;;;;;5093528;28;19999;-71
2022/07/23 01:27:32;;;;;;;;;;;26.20;99.90;;;;;;5093199;28;19904;-71
2022/07/23 01:29:59;;;;;;;;;;;26.20;99.90;;;;;;5093438;28;19939;-71
2022/07/23 01:32:25;;;;;;;;;;;26.20;99.90;;;;;;5093047;28;20250;-71
2022/07/23 01:34:52;;;;;;;;;;;26.20;99.90;;;;;;5092903;28;19975;-71
2022/07/23 01:37:18;;;;;;;;;;;26.20;99.90;;;;;;5092688;28;19931;-72
2022/07/23 01:39:43;;;;;;;;;;;26.20;99.90;;;;;;5092780;28;19904;-71
2022/07/23 01:42:09;;;;;;;;;;;26.30;99.90;;;;;;5092621;28;19904;-70
2022/07/23 01:44:35;;;;;;;;;;;26.30;99.90;;;;;;5091158;28;20010;-70
2022/07/23 01:47:01;;;;;;;;;;;26.30;99.90;;;;;;5092589;28;19904;-71
2022/07/23 01:49:27;;;;;;;;;;;26.30;99.90;;;;;;5092710;28;19904;-70
2022/07/23 01:52:01;;;;;;;;;;;26.30;99.90;;;;;;5092728;28;20385;-71
2022/07/23 01:54:28;;;;;;;;;;;26.30;99.90;;;;;;5093009;28;20446;-71
2022/07/23 01:56:54;;;;;;;;;;;26.40;99.90;;;;;;5092596;28;20324;-71
2022/07/23 01:59:20;;;;;;;;;;;26.40;99.90;;;;;;5090628;28;19904;-71
2022/07/23 02:01:46;;;;;;;;;;;26.40;99.90;;;;;;5092246;28;19927;-71
2022/07/23 02:04:12;;;;;;;;;;;26.40;99.90;;;;;;5092886;28;20007;-71
2022/07/23 02:06:38;;;;;;;;;;;26.40;99.90;;;;;;5092318;28;20000;-71
2022/07/23 02:09:04;;;;;;;;;;;26.40;99.90;;;;;;5092636;28;19990;-70
2022/07/23 02:11:30;;;;;;;;;;;26.50;99.90;;;;;;5092176;28;20388;-70
2022/07/23 02:13:55;;;;;;;;;;;26.50;99.90;;;;;;5092180;28;19956;-70
2022/07/23 02:16:21;;;;;;;;;;;26.50;99.90;;;;;;5092773;28;19919;-70
2022/07/23 02:18:47;;;;;;;;;;;26.40;99.90;;;;;;5092264;28;19923;-70
2022/07/23 02:21:13;;;;;;;;;;;26.20;99.90;;;;;;5092771;28;19992;-70
2022/07/23 02:23:38;;;;;;;;;;;26.20;99.90;;;;;;5092411;28;19918;-70
2022/07/23 02:26:04;;;;;;;;;;;26.20;99.90;;;;;;5092370;28;19904;-70
2022/07/23 02:28:30;;;;;;;;;;;26.20;99.90;;;;;;5090766;28;20242;-70
2022/07/23 02:30:56;;;;;;;;;;;26.20;99.90;;;;;;5092366;28;19956;-70
2022/07/23 02:33:22;;;;;;;;;;;26.20;99.90;;;;;;5092174;28;19949;-70
2022/07/23 02:35:47;;;;;;;;;;;26.10;99.90;;;;;;5092711;28;19904;-71
2022/07/23 02:38:13;;;;;;;;;;;26.10;99.90;;;;;;5092058;28;20240;-70
2022/07/23 02:40:39;;;;;;;;;;;26.10;99.90;;;;;;5092449;28;19908;-70
2022/07/23 02:43:05;;;;;;;;;;;26.10;99.90;;;;;;5091975;28;19904;-71
2022/07/23 02:45:31;;;;;;;;;;;26.20;99.90;;;;;;5090558;28;20374;-71
2022/07/23 02:47:57;;;;;;;;;;;26.20;99.90;;;;;;5091985;28;19911;-71
2022/07/23 02:50:23;;;;;;;;;;;26.20;99.90;;;;;;5090542;28;20308;-71
2022/07/23 02:52:49;;;;;;;;;;;26.10;99.90;;;;;;5091949;28;19998;-71
2022/07/23 02:55:14;;;;;;;;;;;26.10;99.90;;;;;;5092010;28;20061;-71
2022/07/23 02:57:40;;;;;;;;;;;26.10;99.90;;;;;;5090253;28;19969;-71
2022/07/23 03:00:06;;;;;;;;;;;26.10;99.90;;;;;;5092132;28;20046;-71
2022/07/23 03:02:32;;;;;;;;;;;26.00;99.90;;;;;;5091863;28;19946;-71
2022/07/23 03:04:58;;;;;;;;;;;26.10;99.90;;;;;;5092169;28;19992;-71
2022/07/23 03:07:24;;;;;;;;;;;26.00;99.90;;;;;;5091861;28;19943;-71
2022/07/23 03:09:50;;;;;;;;;;;26.00;99.90;;;;;;5092001;28;19904;-71
2022/07/23 03:12:15;;;;;;;;;;;26.00;99.90;;;;;;5094822;28;19949;-71
2022/07/23 03:14:41;;;;;;;;;;;26.00;99.90;;;;;;5096052;28;19915;-71
2022/07/23 03:17:08;;;;;;;;;;;26.00;99.90;;;;;;5095894;28;19947;-70
2022/07/23 03:19:34;;;;;;;;;;;26.00;99.90;;;;;;5096234;28;19918;-71
2022/07/23 03:21:59;;;;;;;;;;;26.00;99.90;;;;;;5095959;28;19908;-70
2022/07/23 03:24:53;;;;;;;;;;;26.00;99.90;;;;;;5095733;28;20006;-72
2022/07/23 03:27:12;;;;;;;;;;;25.90;99.90;;;;;;5095723;28;19920;-71
2022/07/23 03:29:38;;;;;;;;;;;26.00;99.90;;;;;;5095817;28;20289;-71
2022/07/23 03:32:04;;;;;;;;;;;25.90;99.90;;;;;;5095859;28;19995;-71
2022/07/23 03:34:30;;;;;;;;;;;25.90;99.90;;;;;;5094360;28;19950;-71
2022/07/23 03:36:56;;;;;;;;;;;25.80;99.90;;;;;;5095491;28;19912;-72
2022/07/23 03:39:22;;;;;;;;;;;25.80;99.90;;;;;;5095695;28;19904;-71
2022/07/23 03:41:47;;;;;;;;;;;25.70;99.90;;;;;;5095615;28;19990;-71
2022/07/23 03:44:13;;;;;;;;;;;25.70;99.90;;;;;;5095603;28;19904;-71
2022/07/23 03:46:39;;;;;;;;;;;25.70;99.90;;;;;;5095872;28;20292;-71
2022/07/23 03:49:05;;;;;;;;;;;25.70;99.90;;;;;;5094800;28;19980;-71
2022/07/23 03:51:31;;;;;;;;;;;25.60;99.90;;;;;;5095229;28;20002;-71
2022/07/23 03:53:57;;;;;;;;;;;25.60;99.90;;;;;;5093420;28;19965;-71
2022/07/23 03:56:22;;;;;;;;;;;25.70;99.90;;;;;;5094577;28;19908;-71
2022/07/23 03:58:48;;;;;;;;;;;25.70;99.90;;;;;;5095245;28;19908;-71
2022/07/23 04:01:14;;;;;;;;;;;25.70;99.90;;;;;;5094860;28;19904;-72
2022/07/23 04:03:40;;;;;;;;;;;25.70;99.90;;;;;;5094944;28;19960;-71
2022/07/23 04:06:06;;;;;;;;;;;25.70;99.90;;;;;;5094924;28;20297;-71
2022/07/23 04:08:32;;;;;;;;;;;25.70;99.90;;;;;;5094691;28;19904;-71
2022/07/23 04:10:58;;;;;;;;;;;25.70;99.90;;;;;;5094857;28;20281;-71
2022/07/23 04:13:24;;;;;;;;;;;25.70;99.90;;;;;;5094915;28;19904;-71
2022/07/23 04:15:50;;;;;;;;;;;25.80;99.90;;;;;;5094514;28;20009;-71
2022/07/23 04:18:21;;;;;;;;;;;25.80;99.90;;;;;;5092595;28;20256;-72
2022/07/23 04:20:47;;;;;;;;;;;25.90;99.90;;;;;;5092905;28;19915;-71
2022/07/23 04:23:13;;;;;;;;;;;26.00;99.90;;;;;;5093559;28;20276;-71
2022/07/23 04:25:39;;;;;;;;;;;26.00;99.90;;;;;;5094695;28;19990;-71
2022/07/23 04:28:05;;;;;;;;;;;26.10;99.90;;;;;;5092515;28;19983;-71
2022/07/23 04:30:31;;;;;;;;;;;26.10;99.90;;;;;;5094392;28;20385;-71
2022/07/23 04:32:56;;;;;;;;;;;26.10;99.90;;;;;;5094458;28;19908;-71
2022/07/23 04:35:22;;;;;;;;;;;26.20;99.90;;;;;;5094268;28;19912;-71
2022/07/23 04:37:48;;;;;;;;;;;26.30;99.90;;;;;;5094896;28;19919;-72
2022/07/23 04:40:14;;;;;;;;;;;26.30;99.90;;;;;;5093238;28;19915;-72
2022/07/23 04:42:40;;;;;;;;;;;26.50;99.90;;;;;;5094581;28;19911;-71
2022/07/23 04:45:06;;;;;;;;;;;26.50;99.90;;;;;;5094981;28;19948;-71
2022/07/23 04:47:32;;;;;;;;;;;26.60;99.90;;;;;;5094566;28;20276;-71
2022/07/23 04:49:58;;;;;;;;;;;26.60;99.90;;;;;;5094895;28;19904;-71
2022/07/23 04:52:23;;;;;;;;;;;26.70;99.90;;;;;;5094286;28;19904;-71
2022/07/23 04:54:49;;;;;;;;;;;26.80;99.90;;;;;;5094386;28;19908;-71
2022/07/23 04:57:15;;;;;;;;;;;26.80;99.90;;;;;;5094361;28;19927;-71
2022/07/23 04:59:41;;;;;;;;;;;26.90;99.90;;;;;;5094284;28;19912;-71
2022/07/23 05:02:07;;;;;;;;;;;26.90;99.90;;;;;;5094141;28;20297;-71
2022/07/23 05:04:33;;;;;;;;;;;26.80;99.90;;;;;;5094704;28;19911;-72
2022/07/23 05:06:59;;;;;;;;;;;26.70;99.90;;;;;;5092707;28;19904;-71
2022/07/23 05:09:25;;;;;;;;;;;26.70;99.90;;;;;;5094304;28;19904;-71
2022/07/23 05:11:50;;;;;;;;;;;26.70;99.90;;;;;;5092602;28;20353;-70
2022/07/23 05:14:16;;;;;;;;;;;27.00;99.90;;;;;;5094307;28;19904;-71
2022/07/23 05:16:42;;;;;;;;;;;28.20;99.90;;;;;;5093916;28;19965;-71
2022/07/23 05:19:08;;;;;;;;;;;29.90;99.90;;;;;;5093399;28;19916;-71
2022/07/23 05:21:34;;;;;;;;;;;31.80;99.90;;;;;;5091872;28;19995;-72
2022/07/23 05:24:00;;;;;;;;;;;33.40;99.90;;;;;;5093665;28;19943;-72
2022/07/23 05:26:25;;;;;;;;;;;34.70;99.90;;;;;;5093269;28;19907;-72
2022/07/23 05:28:51;;;;;;;;;;;36.10;99.90;;;;;;5093524;28;20353;-72
2022/07/23 05:31:17;;;;;;;;;;;37.30;97.80;;;;;;5093224;28;19910;-72
2022/07/23 05:33:43;;;;;;;;;;;38.40;96.80;;;;;;5093362;28;19904;-72
2022/07/23 05:36:09;;;;;;;;;;;38.60;90.90;;;;;;5093348;28;19923;-72
2022/07/23 05:38:35;;;;;;;;;;;39.20;86.90;;;;;;5093354;28;19944;-72
2022/07/23 05:41:01;;;;;;;;;;;39.90;86.10;;;;;;5093062;28;20016;-72
2022/07/23 05:43:27;;;;;;;;;;;39.90;81.40;;;;;;5092891;28;19904;-72
2022/07/23 05:45:53;;;;;;;;;;;40.00;79.40;;;;;;5092780;28;19939;-72
2022/07/23 05:48:19;;;;;;;;;;;40.50;77.10;;;;;;5092791;28;19951;-72
2022/07/23 05:50:45;;;;;;;;;;;41.10;77.30;;;;;;5092537;28;20352;-71
2022/07/23 05:53:11;;;;;;;;;;;41.40;75.00;;;;;;5092632;28;19904;-71
2022/07/23 05:55:36;;;;;;;;;;;41.80;73.80;;;;;;5092892;28;20003;-72
2022/07/23 05:58:02;;;;;;;;;;;42.60;73.30;;;;;;5091307;28;20253;-72
2022/07/23 06:00:28;;;;;;;;;;;43.40;72.70;;;;;;5092634;28;19915;-72
2022/07/23 06:02:54;;;;;;;;;;;44.00;73.70;;;;;;5092499;28;19904;-72
2022/07/23 06:05:20;;;;;;;;;;;44.40;72.30;;;;;;5092542;28;19931;-72
2022/07/23 06:07:46;;;;;;;;;;;44.80;72.10;;;;;;5092575;28;20217;-72
2022/07/23 06:10:12;;;;;;;;;;;45.20;70.50;;;;;;5092258;28;19904;-71
2022/07/23 06:12:37;;;;;;;;;;;45.20;72.80;;;;;;5092081;28;20008;-72
2022/07/23 06:15:04;;;;;;;;;;;45.40;71.30;;;;;;5092642;28;19911;-72
2022/07/23 06:17:29;;;;;;;;;;;45.30;72.20;;;;;;5090360;28;19976;-72
2022/07/23 06:19:55;;;;;;;;;;;44.70;71.30;;;;;;5092396;28;19908;-72
2022/07/23 06:22:21;;;;;;;;;;;44.80;71.80;;;;;;5092215;28;20221;-72
2022/07/23 06:24:47;;;;;;;;;;;45.20;72.60;;;;;;5091986;28;19904;-72
2022/07/23 06:27:13;;;;;;;;;;;45.10;73.70;;;;;;5092253;28;19911;-72
2022/07/23 06:29:40;;;;;;;;;;;45.40;73.40;;;;;;5092463;28;20022;-73
2022/07/23 06:32:06;;;;;;;;;;;45.10;74.40;;;;;;5091646;28;19931;-73
2022/07/23 06:34:32;;;;;;;;;;;45.50;74.70;;;;;;5092268;28;19904;-73
2022/07/23 06:37:00;;;;;;;;;;;44.50;75.60;;;;;;5091836;28;20048;-72
2022/07/23 06:39:25;;;;;;;;;;;44.60;74.70;;;;;;5092401;28;19939;-72
2022/07/23 06:41:51;;;;;;;;;;;44.50;74.80;;;;;;5092049;28;20352;-73
2022/07/23 06:44:18;;;;;;;;;;;44.70;75.00;;;;;;5091902;28;19904;-73
2022/07/23 06:46:43;;;;;;;;;;;44.10;75.70;;;;;;5091664;28;20264;-72
2022/07/23 06:49:09;;;;;;;;;;;44.60;73.80;;;;;;5091699;28;19993;-72
2022/07/23 06:51:35;;;;;;;;;;;44.70;73.80;;;;;;5091613;28;19992;-73
2022/07/23 06:54:01;;;;;;;;;;;45.30;73.80;;;;;;5091297;28;19904;-71
2022/07/23 06:56:27;;;;;;;;;;;45.20;74.10;;;;;;5091654;28;19919;-73
2022/07/23 06:58:53;;;;;;;;;;;45.50;74.20;;;;;;5091429;28;19916;-72
2022/07/23 07:01:19;;;;;;;;;;;45.80;73.40;;;;;;5091363;28;20343;-72
2022/07/23 07:03:45;;;;;;;;;;;45.90;73.40;;;;;;5091889;28;19904;-72
2022/07/23 07:06:11;;;;;;;;;;;45.60;72.80;;;;;;5091280;28;19915;-72
2022/07/23 07:08:37;;;;;;;;;;;45.90;72.30;;;;;;5091726;28;19904;-72
2022/07/23 07:11:02;;;;;;;;;;;45.40;71.60;;;;;;5091562;28;20333;-73
2022/07/23 07:13:28;;;;;;;;;;;46.40;70.80;;;;;;5091630;28;19955;-73
2022/07/23 07:15:54;;;;;;;;;;;46.40;69.10;;;;;;5091857;28;19998;-72
2022/07/23 07:18:20;;;;;;;;;;;46.30;69.30;;;;;;5091606;28;19965;-72
2022/07/23 07:20:46;;;;;;;;;;;45.50;69.80;;;;;;5091486;28;19904;-72
2022/07/23 07:23:12;;;;;;;;;;;45.40;69.80;;;;;;5091856;28;19911;-73
2022/07/23 07:25:37;;;;;;;;;;;44.20;68.80;;;;;;5091720;28;19920;-71
2022/07/23 07:28:03;;;;;;;;;;;43.40;71.00;;;;;;5091976;28;19927;-73
2022/07/23 07:30:29;;;;;;;;;;;42.30;68.40;;;;;;5091382;28;20379;-72
2022/07/23 07:32:55;;;;;;;;;;;40.70;70.80;;;;;;5089893;28;19908;-71
2022/07/23 07:35:21;;;;;;;;;;;40.40;73.70;;;;;;5091879;28;20217;-72
2022/07/23 07:37:47;;;;;;;;;;;40.00;74.50;;;;;;5091311;28;19919;-72
2022/07/23 07:40:12;;;;;;;;;;;39.40;76.30;;;;;;5091746;28;19947;-72
2022/07/23 07:42:48;;;;;;;;;;;39.20;76.90;;;;;;5091330;28;19904;-72
2022/07/23 07:45:15;;;;;;;;;;;38.80;74.60;;;;;;5091747;28;19904;-72
2022/07/23 07:47:41;;;;;;;;;;;38.00;77.00;;;;;;5089901;28;19904;-72
2022/07/23 07:50:07;;;;;;;;;;;38.10;78.00;;;;;;5089707;28;19951;-72
2022/07/23 07:52:36;;;;;;;;;;;37.20;78.80;;;;;;5091333;28;19950;-72
2022/07/23 07:55:03;;;;;;;;;;;37.20;77.20;;;;;;5091169;28;20329;-71
2022/07/23 07:57:28;;;;;;;;;;;37.60;74.90;;;;;;5091370;28;19912;-72
2022/07/23 07:59:54;;;;;;;;;;;37.30;77.20;;;;;;5095124;28;19904;-72
2022/07/23 08:02:20;;;;;;;;;;;37.40;79.50;;;;;;5095028;28;19908;-72
2022/07/23 08:04:46;;;;;;;;;;;37.50;81.80;;;;;;5095038;28;19915;-71
2022/07/23 08:07:12;;;;;;;;;;;37.70;82.20;;;;;;5095181;28;19904;-71
2022/07/23 08:09:38;;;;;;;;;;;37.80;85.40;;;;;;5095035;28;19927;-72
2022/07/23 08:12:04;;;;;;;;;;;37.80;86.00;;;;;;5093377;28;19904;-71
2022/07/23 08:14:30;;;;;;;;;;;38.00;86.80;;;;;;5095010;28;20356;-71
2022/07/23 08:16:56;;;;;;;;;;;38.20;85.60;;;;;;5094481;28;19911;-71
2022/07/23 08:19:22;;;;;;;;;;;38.30;86.10;;;;;;5094330;28;19939;-71
2022/07/23 08:21:47;;;;;;;;;;;37.90;86.50;;;;;;5092751;28;19911;-71
2022/07/23 08:24:13;;;;;;;;;;;37.50;87.00;;;;;;5093362;28;19927;-71
2022/07/23 08:26:39;;;;;;;;;;;37.60;86.50;;;;;;5094219;28;19904;-71
2022/07/23 08:29:05;;;;;;;;;;;37.60;85.90;;;;;;5094128;28;19904;-71
2022/07/23 08:31:32;;;;;;;;;;;37.50;84.40;;;;;;5094573;28;19979;-70
2022/07/23 08:33:59;;;;;;;;;;;37.30;83.50;;;;;;5094052;28;19905;-72
2022/07/23 08:36:27;;;;;;;;;;;37.50;82.80;;;;;;5093986;28;19907;-71
2022/07/23 08:38:55;;;;;;;;;;;37.40;81.00;;;;;;5094003;28;20057;-71
2022/07/23 08:41:21;;;;;;;;;;;37.30;81.00;;;;;;5094336;28;19990;-71
2022/07/23 08:43:47;;;;;;;;;;;37.20;81.90;;;;;;5094171;28;19947;-71
2022/07/23 08:46:13;;;;;;;;;;;37.20;82.10;;;;;;5094462;28;19911;-71
2022/07/23 08:48:39;;;;;;;;;;;37.10;80.80;;;;;;5093742;28;19904;-71
2022/07/23 08:51:06;;;;;;;;;;;36.90;81.20;;;;;;5093791;28;20037;-71
2022/07/23 08:53:33;;;;;;;;;;;37.10;81.30;;;;;;5093824;28;20329;-71
2022/07/23 08:56:01;;;;;;;;;;;37.20;78.40;;;;;;5093752;28;19915;-71
2022/07/23 08:58:27;;;;;;;;;;;37.10;80.60;;;;;;5093523;28;19912;-71
2022/07/23 09:00:53;;;;;;;;;;;37.00;79.40;;;;;;5093827;28;19904;-71
2022/07/23 09:03:20;;;;;;;;;;;36.60;82.40;;;;;;5093794;28;20241;-71
2022/07/23 09:05:46;;;;;;;;;;;36.50;83.70;;;;;;5093466;28;19904;-71
2022/07/23 09:08:16;;;;;;;;;;;36.20;85.10;;;;;;5093775;28;20036;-71
2022/07/23 09:10:48;;;;;;;;;;;36.20;85.50;;;;;;5093131;28;19904;-71
2022/07/23 09:13:43;;;;;;;;;;;36.40;84.40;;;;;;5093752;28;20285;-71
2022/07/23 09:16:11;;;;;;;;;;;36.60;84.70;;;;;;5085815;28;19976;-71
2022/07/23 09:18:47;;;;;;;;;;;36.60;84.60;;;;;;5093292;28;19916;-71
2022/07/23 09:21:18;;;;;;;;;;;36.30;85.00;;;;;;5093627;28;19911;-71
2022/07/23 09:23:45;;;;;;;;;;;36.30;86.90;;;;;;5093304;28;19904;-71
2022/07/23 09:26:19;;;;;;;;;;;36.40;87.20;;;;;;5093297;28;19904;-71
2022/07/23 09:28:55;;;;;;;;;;;36.20;90.00;;;;;;5093326;28;20364;-71
2022/07/23 09:31:21;;;;;;;;;;;36.10;90.50;;;;;;5093039;28;19904;-71
2022/07/23 09:33:47;;;;;;;;;;;36.00;89.70;;;;;;5093003;28;19972;-71
2022/07/23 09:36:13;;;;;;;;;;;35.70;90.60;;;;;;5093039;28;19904;-70
2022/07/23 09:38:51;;;;;;;;;;;35.50;90.60;;;;;;5093065;28;20285;-70
2022/07/23 09:41:17;;;;;;;;;;;35.20;90.10;;;;;;5091563;28;19961;-71
2022/07/23 09:43:43;;;;;;;;;;;35.30;90.40;;;;;;5093053;28;19904;-70
2022/07/23 09:46:19;;;;;;;;;;;35.30;90.40;;;;;;5092968;28;19911;-71
2022/07/23 09:48:46;;;;;;;;;;;35.20;90.80;;;;;;5092603;28;19923;-71
2022/07/23 09:51:15;;;;;;;;;;;35.20;90.00;;;;;;5093083;28;20260;-70
2022/07/23 09:53:40;;;;;;;;;;;35.30;89.80;;;;;;5092502;28;19908;-72
2022/07/23 09:56:07;;;;;;;;;;;35.30;90.10;;;;;;5092943;28;19995;-73
2022/07/23 09:58:33;;;;;;;;;;;35.30;89.50;;;;;;5093007;28;19912;-73
2022/07/23 10:01:00;;;;;;;;;;;35.30;90.60;;;;;;5091218;28;19904;-71
2022/07/23 10:03:26;;;;;;;;;;;35.30;90.90;;;;;;5091949;28;19920;-72
2022/07/23 10:05:52;;;;;;;;;;;34.90;90.50;;;;;;5092469;28;19911;-70
2022/07/23 10:08:19;;;;;;;;;;;34.80;91.40;;;;;;5090849;28;20265;-71
2022/07/23 10:10:47;;;;;;;;;;;34.80;92.30;;;;;;5092445;28;19912;-71
2022/07/23 10:15:46;;;;;;;;;;;34.40;93.70;;;;;;5092241;28;19904;-71
2022/07/23 10:18:12;;;;;;;;;;;34.20;94.20;;;;;;5091841;28;19916;-71
2022/07/23 10:20:38;;;;;;;;;;;34.10;94.10;;;;;;5091516;28;20270;-70
2022/07/23 10:23:07;;;;;;;;;;;34.30;93.50;;;;;;5090754;28;20272;-72
2022/07/23 10:25:49;;;;;;;;;;;34.50;93.20;;;;;;5092129;28;19916;-71
2022/07/23 10:28:33;;;;;;;;;;;34.50;93.20;;;;;;5092443;28;19957;-71
2022/07/23 10:31:03;;;;;;;;;;;34.70;93.30;;;;;;5092188;28;19903;-71
2022/07/23 10:33:38;;;;;;;;;;;34.90;93.20;;;;;;5092051;28;19908;-71
2022/07/23 10:36:24;;;;;;;;;;;34.60;93.60;;;;;;5092564;28;20022;-71
2022/07/23 10:39:05;;;;;;;;;;;34.60;94.60;;;;;;5090602;28;19916;-72
2022/07/23 10:41:40;;;;;;;;;;;34.40;94.50;;;;;;5092087;28;19963;-71
2022/07/23 10:44:15;;;;;;;;;;;34.20;95.20;;;;;;5091963;28;20003;-71
2022/07/23 10:49:39;;;;;;;;;;;34.50;94.10;;;;;;5092641;28;19911;-72
2022/07/23 10:52:14;;;;;;;;;;;34.50;94.80;;;;;;5092179;28;19904;-72
2022/07/23 10:54:40;;;;;;;;;;;34.20;96.00;;;;;;5092015;28;19999;-71
2022/07/23 10:57:09;;;;;;;;;;;34.00;97.00;;;;;;5092553;28;20043;-71
2022/07/23 11:00:17;;;;;;;;;;;33.90;97.30;;;;;;5092545;28;19904;-72
2022/07/23 11:02:46;;;;;;;;;;;33.90;97.50;;;;;;5010249;28;19905;-71
2022/07/23 11:05:13;;;;;;;;;;;33.90;98.00;;;;;;5010154;28;19948;-72
2022/07/23 11:07:58;;;;;;;;;;;33.80;98.10;;;;;;4993724;28;19906;-73
2022/07/23 11:10:36;;;;;;;;;;;33.90;97.50;;;;;;5010548;28;19928;-73
2022/07/23 11:13:20;;;;;;;;;;;33.90;97.60;;;;;;5010054;28;20026;-72
2022/07/23 11:16:01;;;;;;;;;;;34.10;98.00;;;;;;5010278;28;19912;-72
2022/07/23 11:18:42;;;;;;;;;;;33.80;98.00;;;;;;5009828;28;19921;-71
2022/07/23 11:21:29;;;;;;;;;;;33.70;98.10;;;;;;4993660;28;19913;-72
2022/07/23 11:23:57;;;;;;;;;;;33.50;98.60;;;;;;4993528;28;19917;-71
2022/07/23 11:26:41;;;;;;;;;;;33.50;98.90;;;;;;4993488;28;19993;-71
2022/07/23 11:29:26;;;;;;;;;;;33.50;99.40;;;;;;4993448;28;19909;-71
2022/07/23 11:31:55;;;;;;;;;;;33.80;98.80;;;;;;4993752;28;19905;-71
2022/07/23 11:34:40;;;;;;;;;;;33.80;97.70;;;;;;5051681;28;19988;-71
2022/07/23 11:37:07;;;;;;;;;;;33.90;98.30;;;;;;5056259;28;19912;-71
2022/07/23 11:39:34;;;;;;;;;;;34.10;97.70;;;;;;5055628;28;20359;-71
2022/07/23 11:42:00;;;;;;;;;;;34.30;98.50;;;;;;5055714;28;20007;-71
2022/07/23 11:44:30;;;;;;;;;;;34.40;99.20;;;;;;5056207;28;19905;-72
2022/07/23 11:46:57;;;;;;;;;;;34.40;99.30;;;;;;5055904;28;20357;-72
2022/07/23 11:49:23;;;;;;;;;;;34.20;98.60;;;;;;5056047;28;19917;-72
2022/07/23 11:52:07;;;;;;;;;;;34.40;97.40;;;;;;5055532;28;20013;-72
2022/07/23 11:54:33;;;;;;;;;;;34.20;97.70;;;;;;5055829;28;20369;-71
2022/07/23 11:57:00;;;;;;;;;;;34.10;97.70;;;;;;5055145;28;19960;-71
2022/07/23 11:59:27;;;;;;;;;;;34.20;96.20;;;;;;5055440;28;19905;-72
2022/07/23 12:01:59;;;;;;;;;;;34.20;97.10;;;;;;5055585;28;19905;-72
2022/07/23 12:04:36;;;;;;;;;;;34.30;97.70;;;;;;5055466;28;19992;-71
2022/07/23 12:07:02;;;;;;;;;;;34.30;97.70;;;;;;5055717;28;20345;-72
2022/07/23 12:09:28;;;;;;;;;;;34.00;97.10;;;;;;5055422;28;19919;-71
2022/07/23 12:12:00;;;;;;;;;;;33.90;97.40;;;;;;5055168;28;19985;-72
2022/07/23 12:14:26;;;;;;;;;;;33.90;96.00;;;;;;5055541;28;20392;-71
2022/07/23 12:17:10;;;;;;;;;;;33.90;95.10;;;;;;5053591;28;19913;-71
2022/07/23 12:19:36;;;;;;;;;;;34.00;95.70;;;;;;5055303;28;19978;-71
2022/07/23 12:22:02;;;;;;;;;;;34.00;96.00;;;;;;5054982;28;19999;-71
2022/07/23 12:24:28;;;;;;;;;;;33.90;98.10;;;;;;5054972;28;19904;-72
2022/07/23 12:27:13;;;;;;;;;;;33.90;98.70;;;;;;5054982;28;19911;-73
2022/07/23 12:29:39;;;;;;;;;;;33.90;99.80;;;;;;5054795;28;20279;-71
2022/07/23 12:32:18;;;;;;;;;;;34.10;97.10;;;;;;5054900;28;19905;-72
2022/07/23 12:34:44;;;;;;;;;;;34.20;97.30;;;;;;5055056;28;20391;-72
2022/07/23 12:37:25;;;;;;;;;;;34.00;98.60;;;;;;5054656;28;19912;-72
2022/07/23 12:39:51;;;;;;;;;;;33.80;99.90;;;;;;5053267;28;19916;-72
2022/07/23 12:42:17;;;;;;;;;;;33.90;99.70;;;;;;5054960;28;19912;-72
2022/07/23 12:45:02;;;;;;;;;;;34.00;99.10;;;;;;5053993;28;20254;-72
2022/07/23 12:47:28;;;;;;;;;;;33.90;99.80;;;;;;5053576;28;19908;-71
2022/07/23 12:49:54;;;;;;;;;;;33.90;99.90;;;;;;5054515;28;20311;-71
2022/07/23 12:52:19;;;;;;;;;;;33.50;99.90;;;;;;5054737;28;19947;-71
2022/07/23 12:54:45;;;;;;;;;;;33.50;99.90;;;;;;5054760;28;19904;-71
2022/07/23 12:57:11;;;;;;;;;;;33.50;99.90;;;;;;5054359;28;19970;-71
2022/07/23 12:59:38;;;;;;;;;;;33.50;99.90;;;;;;5054327;28;20015;-71
2022/07/23 13:02:03;;;;;;;;;;;33.60;99.90;;;;;;5054404;28;19951;-71
2022/07/23 13:04:31;;;;;;;;;;;33.50;99.90;;;;;;5054238;28;19904;-71
2022/07/23 13:06:58;;;;;;;;;;;33.70;99.70;;;;;;5054187;28;19909;-72
2022/07/23 13:09:25;;;;;;;;;;;33.70;99.30;;;;;;5052805;28;19904;-72
2022/07/23 13:11:51;;;;;;;;;;;33.80;99.80;;;;;;5054378;28;20403;-72
2022/07/23 13:14:18;;;;;;;;;;;33.90;99.90;;;;;;5054237;28;19928;-72
2022/07/23 13:16:44;;;;;;;;;;;33.90;99.90;;;;;;5054291;28;19985;-72
2022/07/23 13:19:10;;;;;;;;;;;33.90;99.90;;;;;;5089037;28;19916;-72
2022/07/23 13:21:36;;;;;;;;;;;34.00;99.90;;;;;;5094580;28;19904;-72
2022/07/23 13:24:02;;;;;;;;;;;34.00;99.90;;;;;;5094340;28;19904;-72
2022/07/23 13:26:28;;;;;;;;;;;33.80;99.90;;;;;;5094462;28;20026;-72
2022/07/23 13:28:54;;;;;;;;;;;33.80;99.90;;;;;;5093963;28;20372;-71
2022/07/23 13:31:20;;;;;;;;;;;33.50;99.90;;;;;;5093846;28;19915;-71
2022/07/23 13:33:46;;;;;;;;;;;33.40;99.90;;;;;;5093464;28;19903;-71
2022/07/23 13:36:12;;;;;;;;;;;33.30;99.90;;;;;;5094262;28;19911;-71
2022/07/23 13:38:38;;;;;;;;;;;33.50;99.90;;;;;;5093902;28;20348;-71
2022/07/23 13:41:04;;;;;;;;;;;33.60;99.90;;;;;;5093888;28;19948;-71
2022/07/23 13:43:30;;;;;;;;;;;33.70;99.90;;;;;;5093694;28;19904;-72
2022/07/23 13:45:56;;;;;;;;;;;33.70;99.90;;;;;;5093935;28;19908;-71
2022/07/23 13:48:22;;;;;;;;;;;33.80;99.90;;;;;;5093772;28;19911;-71
2022/07/23 13:50:48;;;;;;;;;;;33.90;99.90;;;;;;5093643;28;19957;-71
2022/07/23 13:53:16;;;;;;;;;;;33.80;99.90;;;;;;5093527;28;19942;-71
2022/07/23 13:55:43;;;;;;;;;;;33.60;99.90;;;;;;5092398;28;20002;-71
2022/07/23 13:58:09;;;;;;;;;;;33.70;99.90;;;;;;5093794;28;20375;-72
2022/07/23 14:00:36;;;;;;;;;;;33.90;99.90;;;;;;5093244;28;19998;-71
2022/07/23 14:03:02;;;;;;;;;;;33.80;99.90;;;;;;5091842;28;20252;-71
2022/07/23 14:05:28;;;;;;;;;;;33.90;99.90;;;;;;5093158;28;19904;-71
2022/07/23 14:07:53;;;;;;;;;;;33.90;99.90;;;;;;5093622;28;19904;-71
2022/07/23 14:10:20;;;;;;;;;;;34.00;99.90;;;;;;5093372;28;19973;-71
2022/07/23 14:12:47;;;;;;;;;;;33.90;99.90;;;;;;5091638;28;20306;-71
2022/07/23 14:15:13;;;;;;;;;;;33.80;99.90;;;;;;5093525;28;19999;-72
2022/07/23 14:17:39;;;;;;;;;;;33.60;99.90;;;;;;5092950;28;20011;-72
2022/07/23 14:20:05;;;;;;;;;;;33.60;99.90;;;;;;5092967;28;19919;-72
2022/07/23 14:22:31;;;;;;;;;;;33.70;99.90;;;;;;5093355;28;19915;-72
2022/07/23 14:24:58;;;;;;;;;;;33.40;99.90;;;;;;5093094;28;19904;-72